createdAt,value
2023-03-19T00:00:31.286Z,50.42
2023-03-19T00:02:59.120Z,50.09
2023-03-19T00:05:26.574Z,50.64
2023-03-19T00:07:53.921Z,50.51
2023-03-19T00:10:21.765Z,50.58
2023-03-19T00:12:49.136Z,50.50
2023-03-19T00:15:16.604Z,50.31
2023-03-19T00:17:44.298Z,50.37
2023-03-19T00:20:12.441Z,49.98
2023-03-19T00:22:40.205Z,50.07
2023-03-19T00:25:08.723Z,50.37
2023-03-19T00:27:37.533Z,50.67
2023-03-19T00:30:06.268Z,50.46
2023-03-19T00:32:35.726Z,50.34
2023-03-19T00:35:04.091Z,50.89
2023-03-19T00:37:31.448Z,50.70
2023-03-19T00:39:59.739Z,50.98
2023-03-19T00:42:27.122Z,50.58
2023-03-19T00:44:54.488Z,51.03
2023-03-19T00:47:22.542Z,51.48
2023-03-19T00:49:49.899Z,51.88
2023-03-19T00:52:17.236Z,51.31
2023-03-19T00:54:44.845Z,50.99
2023-03-19T00:57:12.187Z,51.21
2023-03-19T00:59:39.573Z,51.74
2023-03-19T01:02:07.231Z,52.09
2023-03-19T01:04:34.676Z,51.79
2023-03-19T01:07:02.098Z,51.22
2023-03-19T01:09:29.759Z,51.71
2023-03-19T01:11:57.173Z,51.97
2023-03-19T01:14:24.730Z,51.82
2023-03-19T01:16:52.392Z,51.38
2023-03-19T01:19:20.154Z,51.31
2023-03-19T01:21:49.496Z,51.07
2023-03-19T01:24:17.473Z,51.48
2023-03-19T01:26:45.717Z,51.20
2023-03-19T01:29:13.876Z,51.32
2023-03-19T01:31:41.521Z,51.63
2023-03-19T01:34:09.031Z,51.40
2023-03-19T01:36:36.709Z,52.07
2023-03-19T01:39:04.425Z,52.46
2023-03-19T01:41:32.104Z,52.20
2023-03-19T01:43:59.596Z,51.74
2023-03-19T01:46:32.610Z,51.42
2023-03-19T01:49:03.409Z,52.22
2023-03-19T01:51:34.834Z,52.30
2023-03-19T01:54:07.739Z,52.08
2023-03-19T01:56:37.071Z,52.10
2023-03-19T01:59:12.302Z,52.54
2023-03-19T02:01:46.496Z,52.31
2023-03-19T02:04:14.207Z,52.29
2023-03-19T02:06:42.916Z,53.17
2023-03-19T02:09:10.482Z,52.89
2023-03-19T02:11:38.117Z,52.89
2023-03-19T02:14:05.577Z,52.77
2023-03-19T02:16:33.304Z,52.61
2023-03-19T02:19:01.477Z,52.10
2023-03-19T02:21:28.878Z,52.20
2023-03-19T02:24:03.702Z,52.42
2023-03-19T02:26:32.974Z,52.61
2023-03-19T02:29:00.962Z,52.03
2023-03-19T02:31:28.840Z,52.32
2023-03-19T02:34:21.377Z,51.84
2023-03-19T02:36:55.860Z,51.65
2023-03-19T02:39:29.532Z,52.08
2023-03-19T02:41:57.177Z,52.11
2023-03-19T02:44:25.051Z,51.90
2023-03-19T02:46:52.677Z,52.58
2023-03-19T02:49:20.436Z,52.25
2023-03-19T02:51:47.793Z,52.17
2023-03-19T02:54:15.340Z,54.27
2023-03-19T02:56:42.969Z,52.45
2023-03-19T02:59:10.372Z,52.17
2023-03-19T03:01:37.809Z,52.81
2023-03-19T03:04:05.839Z,52.63
2023-03-19T03:06:33.162Z,52.25
2023-03-19T03:09:02.204Z,52.66
2023-03-19T03:11:29.835Z,52.50
2023-03-19T03:13:57.730Z,51.81
2023-03-19T03:16:25.478Z,52.10
2023-03-19T03:18:53.194Z,52.41
2023-03-19T03:21:21.567Z,52.77
2023-03-19T03:23:49.010Z,52.57
2023-03-19T03:26:16.638Z,52.48
2023-03-19T03:28:44.169Z,52.37
2023-03-19T03:31:12.064Z,52.83
2023-03-19T03:33:40.702Z,53.03
2023-03-19T03:36:08.487Z,52.50
2023-03-19T03:38:36.067Z,52.74
2023-03-19T03:41:03.717Z,52.36
2023-03-19T03:43:31.205Z,52.92
2023-03-19T03:45:58.918Z,52.33
2023-03-19T03:48:27.025Z,52.80
2023-03-19T03:50:54.457Z,53.23
2023-03-19T03:53:22.276Z,53.23
2023-03-19T03:55:50.001Z,52.92
2023-03-19T03:58:19.267Z,53.10
2023-03-19T04:00:47.848Z,52.14
2023-03-19T04:03:15.530Z,52.90
2023-03-19T04:05:44.413Z,52.81
2023-03-19T04:08:12.252Z,52.50
2023-03-19T04:10:42.400Z,52.38
2023-03-19T04:13:10.442Z,52.77
2023-03-19T04:15:38.612Z,52.58
2023-03-19T04:18:06.302Z,53.64
2023-03-19T04:20:33.881Z,52.38
2023-03-19T04:23:02.134Z,52.80
2023-03-19T04:25:30.131Z,52.32
2023-03-19T04:27:58.254Z,51.90
2023-03-19T04:30:26.316Z,52.15
2023-03-19T04:32:53.981Z,51.98
2023-03-19T04:35:21.575Z,54.20
2023-03-19T04:37:49.020Z,53.33
2023-03-19T04:40:18.416Z,55.34
2023-03-19T04:42:46.284Z,53.53
2023-03-19T04:45:14.164Z,52.86
2023-03-19T04:47:42.591Z,52.98
2023-03-19T04:50:10.479Z,53.12
2023-03-19T04:52:37.929Z,52.78
2023-03-19T04:55:06.490Z,52.62
2023-03-19T04:57:36.848Z,52.41
2023-03-19T05:00:04.635Z,52.08
2023-03-19T05:02:33.987Z,52.31
2023-03-19T05:05:01.855Z,52.09
2023-03-19T05:07:29.740Z,52.94
2023-03-19T05:09:58.231Z,52.77
2023-03-19T05:12:26.015Z,52.62
2023-03-19T05:14:54.772Z,53.15
2023-03-19T05:17:22.653Z,53.05
2023-03-19T05:19:50.247Z,52.83
2023-03-19T05:22:18.090Z,52.67
2023-03-19T05:24:46.346Z,52.58
2023-03-19T05:27:13.959Z,52.40
2023-03-19T05:29:42.563Z,52.53
2023-03-19T05:32:11.133Z,51.99
2023-03-19T05:34:39.031Z,51.43
2023-03-19T05:37:06.742Z,52.02
2023-03-19T05:39:35.450Z,51.79
2023-03-19T05:42:03.118Z,51.23
2023-03-19T05:44:30.540Z,50.83
2023-03-19T05:46:58.356Z,50.51
2023-03-19T05:49:26.812Z,51.13
2023-03-19T05:51:54.238Z,50.71
2023-03-19T05:54:21.927Z,50.53
2023-03-19T05:56:49.471Z,50.51
2023-03-19T05:59:17.420Z,50.38
2023-03-19T06:01:46.397Z,50.43
2023-03-19T06:04:14.276Z,50.68
2023-03-19T06:06:42.284Z,50.59
2023-03-19T06:09:09.709Z,50.40
2023-03-19T06:11:39.570Z,51.74
2023-03-19T06:14:08.440Z,51.26
2023-03-19T06:16:37.501Z,50.64
2023-03-19T06:19:05.894Z,49.37
2023-03-19T06:21:33.270Z,49.01
2023-03-19T06:24:01.407Z,49.15
2023-03-19T06:26:29.220Z,48.32
2023-03-19T06:28:57.551Z,48.27
2023-03-19T06:31:25.851Z,48.27
2023-03-19T06:33:55.145Z,51.44
2023-03-19T06:36:22.765Z,50.04
2023-03-19T06:38:50.640Z,48.44
2023-03-19T06:41:18.025Z,49.11
2023-03-19T06:43:46.299Z,47.98
2023-03-19T06:46:13.977Z,47.86
2023-03-19T06:48:41.358Z,48.50
2023-03-19T06:51:08.686Z,48.40
2023-03-19T06:53:36.348Z,48.59
2023-03-19T06:56:04.172Z,47.94
2023-03-19T06:58:31.572Z,49.29
2023-03-19T07:00:59.792Z,49.60
2023-03-19T07:03:27.169Z,49.99
2023-03-19T07:05:54.617Z,49.43
2023-03-19T07:08:22.301Z,47.42
2023-03-19T07:10:49.642Z,45.87
2023-03-19T07:13:17.058Z,45.79
2023-03-19T07:15:44.712Z,46.26
2023-03-19T07:18:12.339Z,45.55
2023-03-19T07:20:39.678Z,44.61
2023-03-19T07:23:07.300Z,46.88
2023-03-19T07:25:34.696Z,48.70
2023-03-19T07:28:02.066Z,47.15
2023-03-19T07:30:29.737Z,47.79
2023-03-19T07:32:57.117Z,46.82
2023-03-19T07:35:24.548Z,45.67
2023-03-19T07:37:52.189Z,45.37
2023-03-19T07:40:19.622Z,45.34
2023-03-19T07:42:47.031Z,44.86
2023-03-19T07:45:14.659Z,44.19
2023-03-19T07:47:42.047Z,44.80
2023-03-19T07:50:09.907Z,44.07
2023-03-19T07:52:37.545Z,43.98
2023-03-19T07:55:05.378Z,43.81
2023-03-19T07:57:33.059Z,43.36
2023-03-19T08:00:00.678Z,44.73
2023-03-19T08:02:28.080Z,44.14
2023-03-19T08:04:56.023Z,43.85
2023-03-19T08:07:23.596Z,44.05
2023-03-19T08:09:50.995Z,45.76
2023-03-19T08:12:18.616Z,44.27
2023-03-19T08:14:46.066Z,43.63
2023-03-19T08:17:13.623Z,43.73
2023-03-19T08:19:41.325Z,42.85
2023-03-19T08:22:08.790Z,43.72
2023-03-19T08:24:36.382Z,42.16
2023-03-19T08:27:04.016Z,42.35
2023-03-19T08:29:31.438Z,42.81
2023-03-19T08:32:00.671Z,42.26
2023-03-19T08:34:28.345Z,41.82
2023-03-19T08:36:55.773Z,41.33
2023-03-19T08:39:24.043Z,40.38
2023-03-19T08:41:51.673Z,40.62
2023-03-19T08:44:19.112Z,40.53
2023-03-19T08:46:46.459Z,39.73
2023-03-19T08:49:14.090Z,40.16
2023-03-19T08:51:41.544Z,41.93
2023-03-19T08:54:11.234Z,41.27
2023-03-19T08:56:38.972Z,39.55
2023-03-19T08:59:06.358Z,40.76
2023-03-19T09:01:33.712Z,41.30
2023-03-19T09:04:02.197Z,40.46
2023-03-19T09:06:30.147Z,40.15
2023-03-19T09:08:57.539Z,43.15
2023-03-19T09:11:25.433Z,43.51
2023-03-19T09:13:52.855Z,40.03
2023-03-19T09:16:20.262Z,40.21
2023-03-19T09:18:47.873Z,40.49
2023-03-19T09:21:15.241Z,40.24
2023-03-19T09:23:42.623Z,38.97
2023-03-19T09:26:10.411Z,40.95
2023-03-19T09:28:38.132Z,40.01
2023-03-19T09:31:09.480Z,40.84
2023-03-19T09:33:37.172Z,41.71
2023-03-19T09:36:04.772Z,39.73
2023-03-19T09:38:32.149Z,41.63
2023-03-19T09:41:04.661Z,40.62
2023-03-19T09:43:35.980Z,39.47
2023-03-19T09:46:06.162Z,37.93
2023-03-19T09:48:43.290Z,38.92
2023-03-19T09:51:15.540Z,39.64
2023-03-19T09:54:15.873Z,43.50
2023-03-19T09:56:43.586Z,40.52
2023-03-19T09:59:10.977Z,40.39
2023-03-19T10:01:38.573Z,40.96
2023-03-19T10:04:38.876Z,37.67
2023-03-19T10:07:32.649Z,36.99
2023-03-19T10:10:33.444Z,37.15
2023-03-19T10:13:12.383Z,36.16
2023-03-19T10:15:39.993Z,35.29
2023-03-19T10:18:09.938Z,35.54
2023-03-19T10:21:14.627Z,34.47
2023-03-19T10:23:45.951Z,34.35
2023-03-19T10:26:15.796Z,34.32
2023-03-19T10:28:45.273Z,33.84
2023-03-19T10:31:28.378Z,33.10
2023-03-19T10:34:19.991Z,33.07
2023-03-19T10:36:47.360Z,33.06
2023-03-19T10:39:18.795Z,33.05
2023-03-19T10:41:52.089Z,33.23
2023-03-19T10:44:26.263Z,33.38
2023-03-19T10:46:53.625Z,33.35
2023-03-19T10:49:21.252Z,36.53
2023-03-19T10:51:48.737Z,35.52
2023-03-19T10:54:24.918Z,35.61
2023-03-19T10:56:54.908Z,35.94
2023-03-19T10:59:27.064Z,34.42
2023-03-19T11:01:58.713Z,34.50
2023-03-19T11:04:29.638Z,33.99
2023-03-19T11:07:03.037Z,36.02
2023-03-19T11:09:56.641Z,33.68
2023-03-19T11:12:34.872Z,34.19
2023-03-19T11:15:07.506Z,34.26
2023-03-19T11:17:46.384Z,34.44
2023-03-19T11:20:36.399Z,36.06
2023-03-19T11:23:09.268Z,34.87
2023-03-19T11:25:38.840Z,36.34
2023-03-19T11:28:14.525Z,33.61
2023-03-19T11:31:09.182Z,32.67
2023-03-19T11:33:58.496Z,34.06
2023-03-19T11:36:41.948Z,34.83
2023-03-19T11:39:15.701Z,33.96
2023-03-19T11:41:47.145Z,32.85
2023-03-19T11:44:29.175Z,34.46
2023-03-19T11:47:27.542Z,34.99
2023-03-19T11:50:18.218Z,35.34
2023-03-19T11:52:54.031Z,32.97
2023-03-19T11:55:27.336Z,32.77
2023-03-19T11:58:16.177Z,33.44
2023-03-19T12:00:47.396Z,35.12
2023-03-19T12:03:35.143Z,35.05
2023-03-19T12:06:30.658Z,35.46
2023-03-19T12:09:03.502Z,33.42
2023-03-19T12:11:53.467Z,32.77
2023-03-19T12:14:27.391Z,31.92
2023-03-19T12:17:24.201Z,32.24
2023-03-19T12:20:16.526Z,31.75
2023-03-19T12:22:56.882Z,32.00
2023-03-19T12:25:39.668Z,32.74
2023-03-19T12:28:12.846Z,35.43
2023-03-19T12:30:46.521Z,34.58
2023-03-19T12:33:22.140Z,32.88
2023-03-19T12:35:50.442Z,34.10
2023-03-19T12:38:21.714Z,32.83
2023-03-19T12:41:11.127Z,32.66
2023-03-19T12:44:04.247Z,31.80
2023-03-19T12:46:33.939Z,31.45
2023-03-19T12:49:10.416Z,31.04
2023-03-19T12:51:42.432Z,31.15
2023-03-19T12:54:21.431Z,30.76
2023-03-19T12:56:53.583Z,31.30
2023-03-19T12:59:43.592Z,31.34
2023-03-19T13:02:29.851Z,33.35
2023-03-19T13:05:01.712Z,31.80
2023-03-19T13:07:34.276Z,32.10
2023-03-19T13:10:09.152Z,31.32
2023-03-19T13:12:37.606Z,32.45
2023-03-19T13:15:21.008Z,31.82
2023-03-19T13:18:00.848Z,31.48
2023-03-19T13:20:53.331Z,31.88
2023-03-19T13:23:32.244Z,32.04
2023-03-19T13:26:00.206Z,31.73
2023-03-19T13:28:54.407Z,32.43
2023-03-19T13:31:26.299Z,31.79
2023-03-19T13:34:24.826Z,31.99
2023-03-19T13:37:07.055Z,31.77
2023-03-19T13:39:34.537Z,32.39
2023-03-19T13:42:20.259Z,33.18
2023-03-19T13:45:30.068Z,33.28
2023-03-19T13:47:59.189Z,32.99
2023-03-19T13:50:28.239Z,32.37
2023-03-19T13:53:22.326Z,34.29
2023-03-19T13:56:00.118Z,33.31
2023-03-19T13:58:47.273Z,31.88
2023-03-19T14:01:27.495Z,32.73
2023-03-19T14:03:59.292Z,30.41
2023-03-19T14:06:32.729Z,31.25
2023-03-19T14:09:00.502Z,30.50
2023-03-19T14:11:35.994Z,31.21
2023-03-19T14:14:05.596Z,31.24
2023-03-19T14:16:37.939Z,30.76
2023-03-19T14:19:11.405Z,32.01
2023-03-19T14:21:51.268Z,30.63
2023-03-19T14:24:58.508Z,30.65
2023-03-19T14:27:32.985Z,30.60
2023-03-19T14:30:11.671Z,30.11
2023-03-19T14:32:42.456Z,30.00
2023-03-19T14:35:13.184Z,30.04
2023-03-19T14:37:46.447Z,30.30
2023-03-19T14:40:19.285Z,29.87
2023-03-19T14:43:08.421Z,29.85
2023-03-19T14:46:01.230Z,30.04
2023-03-19T14:48:50.946Z,31.19
2023-03-19T14:51:33.819Z,29.97
2023-03-19T14:54:27.284Z,29.57
2023-03-19T14:56:56.449Z,29.86
2023-03-19T14:59:23.843Z,31.58
2023-03-19T15:01:53.230Z,30.34
2023-03-19T15:04:22.650Z,30.49
2023-03-19T15:06:55.575Z,29.86
2023-03-19T15:09:27.191Z,29.85
2023-03-19T15:12:14.350Z,30.27
2023-03-19T15:15:14.355Z,30.07
2023-03-19T15:17:45.315Z,29.67
2023-03-19T15:20:21.430Z,30.14
2023-03-19T15:22:55.489Z,30.25
2023-03-19T15:25:23.214Z,30.02
2023-03-19T15:28:13.568Z,30.20
2023-03-19T15:30:53.712Z,30.19
2023-03-19T15:33:39.188Z,30.37
2023-03-19T15:36:09.190Z,30.52
2023-03-19T15:38:40.036Z,31.80
2023-03-19T15:41:07.848Z,31.37
2023-03-19T15:43:36.294Z,31.84
2023-03-19T15:46:03.732Z,31.98
2023-03-19T15:48:38.291Z,31.67
2023-03-19T15:51:05.919Z,31.51
2023-03-19T15:53:33.768Z,31.39
2023-03-19T15:56:02.420Z,31.18
2023-03-19T15:58:31.737Z,31.31
2023-03-19T16:00:59.801Z,31.40
2023-03-19T16:03:37.747Z,31.68
2023-03-19T16:06:06.614Z,31.32
2023-03-19T16:08:34.273Z,31.56
2023-03-19T16:11:26.333Z,31.82
2023-03-19T16:14:10.726Z,32.69
2023-03-19T16:16:39.502Z,32.77
2023-03-19T16:19:34.461Z,33.75
2023-03-19T16:22:03.239Z,34.24
2023-03-19T16:24:34.155Z,34.52
2023-03-19T16:27:03.846Z,34.42
2023-03-19T16:29:43.878Z,35.06
2023-03-19T16:32:20.533Z,35.23
2023-03-19T16:34:50.957Z,35.21
2023-03-19T16:37:33.138Z,35.71
2023-03-19T16:40:02.561Z,35.58
2023-03-19T16:42:30.866Z,35.58
2023-03-19T16:44:58.328Z,35.81
2023-03-19T16:47:25.998Z,36.10
2023-03-19T16:49:53.350Z,36.12
2023-03-19T16:52:22.297Z,36.27
2023-03-19T16:54:50.059Z,36.42
2023-03-19T16:57:17.544Z,36.26
2023-03-19T16:59:45.309Z,36.26
2023-03-19T17:02:13.477Z,36.00
2023-03-19T17:04:40.930Z,36.39
2023-03-19T17:07:08.559Z,36.41
2023-03-19T17:09:36.287Z,36.67
2023-03-19T17:12:04.167Z,36.81
2023-03-19T17:14:31.527Z,36.66
2023-03-19T17:16:59.153Z,36.93
2023-03-19T17:19:28.860Z,37.04
2023-03-19T17:21:57.330Z,37.30
2023-03-19T17:24:29.528Z,37.31
2023-03-19T17:26:57.877Z,37.43
2023-03-19T17:29:26.186Z,37.42
2023-03-19T17:31:53.979Z,37.28
2023-03-19T17:34:23.343Z,37.57
2023-03-19T17:37:01.089Z,37.89
2023-03-19T17:39:32.028Z,37.84
2023-03-19T17:41:59.736Z,37.87
2023-03-19T17:44:27.946Z,38.48
2023-03-19T17:46:55.573Z,38.73
2023-03-19T17:49:29.059Z,38.84
2023-03-19T17:51:56.476Z,39.04
2023-03-19T17:54:26.791Z,39.01
2023-03-19T17:56:54.795Z,38.98
2023-03-19T17:59:22.898Z,39.06
2023-03-19T18:01:50.674Z,39.16
2023-03-19T18:04:20.466Z,39.32
2023-03-19T18:06:53.981Z,39.49
2023-03-19T18:09:23.532Z,39.43
2023-03-19T18:11:50.933Z,39.13
2023-03-19T18:14:18.329Z,39.22
2023-03-19T18:16:46.394Z,39.21
2023-03-19T18:19:28.261Z,39.06
2023-03-19T18:21:55.916Z,39.35
2023-03-19T18:24:23.300Z,39.71
2023-03-19T18:26:50.669Z,39.76
2023-03-19T18:29:18.342Z,39.90
2023-03-19T18:31:45.914Z,39.81
2023-03-19T18:34:13.846Z,40.29
2023-03-19T18:36:41.505Z,40.41
2023-03-19T18:39:15.565Z,40.45
2023-03-19T18:41:43.411Z,40.42
2023-03-19T18:44:12.297Z,39.69
2023-03-19T18:46:39.887Z,39.80
2023-03-19T18:49:20.451Z,39.74
2023-03-19T18:52:01.040Z,39.79
2023-03-19T18:54:31.185Z,39.56
2023-03-19T18:56:59.950Z,39.82
2023-03-19T18:59:30.339Z,40.35
2023-03-19T19:02:03.311Z,40.42
2023-03-19T19:04:31.500Z,40.10
2023-03-19T19:06:59.838Z,40.24
2023-03-19T19:09:27.588Z,40.19
2023-03-19T19:11:57.428Z,40.71
2023-03-19T19:14:25.274Z,40.73
2023-03-19T19:16:52.745Z,40.60
2023-03-19T19:19:23.624Z,40.65
2023-03-19T19:21:51.510Z,40.44
2023-03-19T19:24:18.895Z,40.79
2023-03-19T19:26:47.215Z,41.42
2023-03-19T19:29:23.535Z,41.62
2023-03-19T19:31:50.955Z,41.09
2023-03-19T19:34:18.598Z,41.12
2023-03-19T19:36:46.069Z,41.00
2023-03-19T19:39:13.433Z,41.17
2023-03-19T19:41:43.555Z,40.91
2023-03-19T19:44:18.378Z,41.37
2023-03-19T19:46:46.224Z,40.92
2023-03-19T19:49:16.629Z,40.40
2023-03-19T19:51:43.986Z,41.60
2023-03-19T19:54:11.615Z,41.48
2023-03-19T19:56:39.267Z,41.14
2023-03-19T19:59:06.920Z,40.82
2023-03-19T20:01:34.609Z,40.48
2023-03-19T20:04:03.970Z,40.09
2023-03-19T20:06:31.892Z,40.51
2023-03-19T20:08:59.513Z,41.05
2023-03-19T20:11:27.178Z,38.75
2023-03-19T20:13:55.537Z,38.30
2023-03-19T20:16:24.966Z,38.27
2023-03-19T20:18:54.747Z,38.20
2023-03-19T20:21:22.695Z,38.30
2023-03-19T20:23:53.038Z,38.27
2023-03-19T20:26:22.162Z,38.36
2023-03-19T20:28:49.555Z,38.57
2023-03-19T20:31:26.025Z,38.66
2023-03-19T20:33:53.668Z,38.78
2023-03-19T20:36:21.049Z,38.68
2023-03-19T20:38:48.470Z,39.42
2023-03-19T20:41:20.195Z,39.52
2023-03-19T20:43:47.642Z,39.47
2023-03-19T20:46:15.244Z,39.43
2023-03-19T20:48:42.909Z,39.48
2023-03-19T20:51:10.599Z,39.81
2023-03-19T20:53:37.983Z,40.03
2023-03-19T20:56:10.404Z,40.46
2023-03-19T20:58:37.749Z,40.65
2023-03-19T21:01:05.608Z,40.48
2023-03-19T21:03:33.666Z,41.04
2023-03-19T21:06:02.557Z,41.05
2023-03-19T21:08:37.378Z,40.61
2023-03-19T21:11:05.447Z,41.67
2023-03-19T21:13:32.859Z,41.56
2023-03-19T21:16:00.366Z,40.79
2023-03-19T21:18:28.027Z,41.04
2023-03-19T21:20:55.801Z,41.91
2023-03-19T21:23:31.705Z,41.53
2023-03-19T21:25:59.492Z,40.66
2023-03-19T21:28:31.736Z,41.54
2023-03-19T21:30:59.367Z,41.61
2023-03-19T21:33:28.454Z,41.02
2023-03-19T21:35:56.423Z,41.04
2023-03-19T21:38:24.172Z,40.87
2023-03-19T21:40:52.413Z,40.47
2023-03-19T21:43:43.536Z,40.46
2023-03-19T21:46:23.771Z,40.94
2023-03-19T21:48:53.332Z,40.70
2023-03-19T21:51:21.142Z,40.10
2023-03-19T21:53:48.667Z,40.18
2023-03-19T21:56:33.386Z,40.27
2023-03-19T21:59:02.535Z,39.95
2023-03-19T22:01:29.962Z,40.43
2023-03-19T22:03:57.845Z,40.74
2023-03-19T22:06:25.649Z,41.05
2023-03-19T22:08:56.252Z,40.26
2023-03-19T22:11:31.503Z,40.69
2023-03-19T22:14:04.657Z,40.19
2023-03-19T22:16:32.358Z,39.95
2023-03-19T22:18:59.787Z,39.87
2023-03-19T22:21:29.969Z,39.87
2023-03-19T22:23:57.618Z,39.61
2023-03-19T22:26:35.778Z,39.96
2023-03-19T22:29:25.281Z,40.08
2023-03-19T22:31:53.049Z,39.34
2023-03-19T22:34:22.987Z,39.46
2023-03-19T22:36:50.505Z,39.95
2023-03-19T22:39:17.851Z,39.28
2023-03-19T22:41:46.425Z,40.57
2023-03-19T22:44:24.541Z,39.68
2023-03-19T22:46:52.516Z,39.39
2023-03-19T22:49:19.886Z,39.41
2023-03-19T22:51:47.454Z,39.51
2023-03-19T22:54:15.122Z,39.61
2023-03-19T22:56:42.482Z,39.32
2023-03-19T22:59:09.900Z,39.74
2023-03-19T23:01:41.857Z,39.06
2023-03-19T23:04:25.909Z,38.37
2023-03-19T23:06:54.265Z,39.25
2023-03-19T23:09:26.137Z,39.34
2023-03-19T23:11:53.946Z,38.93
2023-03-19T23:14:29.522Z,39.07
2023-03-19T23:17:00.794Z,38.82
2023-03-19T23:19:30.075Z,38.71
2023-03-19T23:21:58.691Z,38.45
2023-03-19T23:24:26.560Z,38.33
2023-03-19T23:26:54.516Z,39.21
2023-03-19T23:29:24.551Z,38.85
2023-03-19T23:31:51.992Z,38.36
2023-03-19T23:34:19.389Z,38.46
2023-03-19T23:36:47.376Z,38.44
2023-03-19T23:39:15.237Z,38.05
2023-03-19T23:41:49.971Z,39.54
2023-03-19T23:44:17.761Z,39.35
2023-03-19T23:46:46.033Z,39.30
2023-03-19T23:49:20.644Z,39.89
2023-03-19T23:51:48.261Z,39.25
2023-03-19T23:54:31.280Z,39.76
2023-03-19T23:56:59.960Z,38.77
2023-03-19T23:59:27.575Z,38.22
